sensor_id;sensor_type;location;lat;lon;timestamp;P1;durP1;ratioP1;P2;durP2;ratioP2
16828;SDS011;8531;48.078;11.968;2022-11-15T00:00:53;7.05;;;5.45;;
16828;SDS011;8531;48.078;11.968;2022-11-15T00:03:20;7.03;;;6.10;;
16828;SDS011;8531;48.078;11.968;2022-11-15T00:05:48;7.07;;;5.90;;
16828;SDS011;8531;48.078;11.968;2022-11-15T00:08:14;7.28;;;5.63;;
16828;SDS011;8531;48.078;11.968;2022-11-15T00:10:40;6.95;;;5.20;;
16828;SDS011;8531;48.078;11.968;2022-11-15T00:13:07;6.50;;;5.80;;
16828;SDS011;8531;48.078;11.968;2022-11-15T00:15:40;6.88;;;5.85;;
16828;SDS011;8531;48.078;11.968;2022-11-15T00:18:06;7.45;;;5.50;;
16828;SDS011;8531;48.078;11.968;2022-11-15T00:20:39;6.55;;;4.93;;
16828;SDS011;8531;48.078;11.968;2022-11-15T00:23:05;6.78;;;5.68;;
16828;SDS011;8531;48.078;11.968;2022-11-15T00:25:31;6.97;;;5.57;;
16828;SDS011;8531;48.078;11.968;2022-11-15T00:27:58;7.15;;;5.80;;
16828;SDS011;8531;48.078;11.968;2022-11-15T00:30:25;8.40;;;5.72;;
16828;SDS011;8531;48.078;11.968;2022-11-15T00:32:51;7.25;;;5.45;;
16828;SDS011;8531;48.078;11.968;2022-11-15T00:35:17;7.15;;;5.22;;
16828;SDS011;8531;48.078;11.968;2022-11-15T00:37:43;7.80;;;5.90;;
16828;SDS011;8531;48.078;11.968;2022-11-15T00:40:10;5.47;;;4.82;;
16828;SDS011;8531;48.078;11.968;2022-11-15T00:42:37;6.32;;;5.15;;
16828;SDS011;8531;48.078;11.968;2022-11-15T00:45:03;5.95;;;5.07;;
16828;SDS011;8531;48.078;11.968;2022-11-15T00:47:30;6.43;;;5.22;;
16828;SDS011;8531;48.078;11.968;2022-11-15T00:49:55;6.07;;;5.40;;
16828;SDS011;8531;48.078;11.968;2022-11-15T00:52:21;10.18;;;5.28;;
16828;SDS011;8531;48.078;11.968;2022-11-15T00:54:47;6.35;;;4.90;;
16828;SDS011;8531;48.078;11.968;2022-11-15T00:57:12;5.20;;;4.18;;
16828;SDS011;8531;48.078;11.968;2022-11-15T00:59:38;5.78;;;4.78;;
16828;SDS011;8531;48.078;11.968;2022-11-15T01:02:04;5.47;;;4.93;;
16828;SDS011;8531;48.078;11.968;2022-11-15T01:04:29;7.80;;;5.38;;
16828;SDS011;8531;48.078;11.968;2022-11-15T01:06:55;5.40;;;4.45;;
16828;SDS011;8531;48.078;11.968;2022-11-15T01:09:21;5.30;;;4.38;;
16828;SDS011;8531;48.078;11.968;2022-11-15T01:11:46;4.22;;;3.60;;
16828;SDS011;8531;48.078;11.968;2022-11-15T01:14:12;5.90;;;3.80;;
16828;SDS011;8531;48.078;11.968;2022-11-15T01:16:38;7.18;;;4.30;;
16828;SDS011;8531;48.078;11.968;2022-11-15T01:19:04;3.80;;;3.40;;
16828;SDS011;8531;48.078;11.968;2022-11-15T01:21:30;3.80;;;3.40;;
16828;SDS011;8531;48.078;11.968;2022-11-15T01:23:56;3.42;;;3.13;;
16828;SDS011;8531;48.078;11.968;2022-11-15T01:26:22;3.38;;;3.08;;
16828;SDS011;8531;48.078;11.968;2022-11-15T01:28:48;4.32;;;3.10;;
16828;SDS011;8531;48.078;11.968;2022-11-15T01:31:16;3.92;;;3.13;;
16828;SDS011;8531;48.078;11.968;2022-11-15T01:33:44;3.75;;;3.38;;
16828;SDS011;8531;48.078;11.968;2022-11-15T01:36:12;3.10;;;2.75;;
16828;SDS011;8531;48.078;11.968;2022-11-15T01:38:39;3.33;;;3.00;;
16828;SDS011;8531;48.078;11.968;2022-11-15T01:41:05;3.33;;;3.03;;
16828;SDS011;8531;48.078;11.968;2022-11-15T01:43:32;4.53;;;3.45;;
16828;SDS011;8531;48.078;11.968;2022-11-15T01:46:08;4.85;;;3.38;;
16828;SDS011;8531;48.078;11.968;2022-11-15T01:48:49;3.83;;;3.08;;
16828;SDS011;8531;48.078;11.968;2022-11-15T01:51:19;4.07;;;3.30;;
16828;SDS011;8531;48.078;11.968;2022-11-15T01:53:47;3.78;;;3.05;;
16828;SDS011;8531;48.078;11.968;2022-11-15T01:56:16;5.43;;;2.67;;
16828;SDS011;8531;48.078;11.968;2022-11-15T01:58:46;4.70;;;3.85;;
16828;SDS011;8531;48.078;11.968;2022-11-15T02:01:13;4.30;;;2.78;;
16828;SDS011;8531;48.078;11.968;2022-11-15T02:04:22;2.92;;;2.63;;
16828;SDS011;8531;48.078;11.968;2022-11-15T02:06:34;3.00;;;2.70;;
16828;SDS011;8531;48.078;11.968;2022-11-15T02:09:01;3.95;;;2.40;;
16828;SDS011;8531;48.078;11.968;2022-11-15T02:11:27;5.15;;;2.85;;
16828;SDS011;8531;48.078;11.968;2022-11-15T02:13:53;2.97;;;2.30;;
16828;SDS011;8531;48.078;11.968;2022-11-15T02:21:37;3.13;;;2.25;;
16828;SDS011;8531;48.078;11.968;2022-11-15T02:27:11;3.58;;;2.80;;
16828;SDS011;8531;48.078;11.968;2022-11-15T02:32:20;3.28;;;2.58;;
16828;SDS011;8531;48.078;11.968;2022-11-15T02:34:54;3.72;;;2.03;;
16828;SDS011;8531;48.078;11.968;2022-11-15T02:42:49;2.95;;;2.42;;
16828;SDS011;8531;48.078;11.968;2022-11-15T02:45:42;4.18;;;2.70;;
16828;SDS011;8531;48.078;11.968;2022-11-15T02:48:13;2.85;;;2.40;;
16828;SDS011;8531;48.078;11.968;2022-11-15T02:50:41;3.05;;;2.50;;
16828;SDS011;8531;48.078;11.968;2022-11-15T02:53:08;3.08;;;2.50;;
16828;SDS011;8531;48.078;11.968;2022-11-15T02:55:35;3.03;;;2.53;;
16828;SDS011;8531;48.078;11.968;2022-11-15T03:12:11;4.25;;;2.70;;
16828;SDS011;8531;48.078;11.968;2022-11-15T03:15:06;3.95;;;2.35;;
16828;SDS011;8531;48.078;11.968;2022-11-15T03:17:42;4.50;;;2.60;;
16828;SDS011;8531;48.078;11.968;2022-11-15T03:20:22;2.67;;;2.05;;
16828;SDS011;8531;48.078;11.968;2022-11-15T03:22:52;6.55;;;2.30;;
16828;SDS011;8531;48.078;11.968;2022-11-15T03:25:22;3.47;;;2.17;;
16828;SDS011;8531;48.078;11.968;2022-11-15T03:27:53;2.83;;;2.30;;
16828;SDS011;8531;48.078;11.968;2022-11-15T03:30:22;2.72;;;2.28;;
16828;SDS011;8531;48.078;11.968;2022-11-15T03:32:50;3.08;;;2.38;;
16828;SDS011;8531;48.078;11.968;2022-11-15T03:35:22;3.17;;;2.60;;
16828;SDS011;8531;48.078;11.968;2022-11-15T03:40:40;3.53;;;2.97;;
16828;SDS011;8531;48.078;11.968;2022-11-15T03:43:15;3.42;;;2.30;;
16828;SDS011;8531;48.078;11.968;2022-11-15T03:46:28;16.02;;;8.25;;
16828;SDS011;8531;48.078;11.968;2022-11-15T03:48:45;5.90;;;4.00;;
16828;SDS011;8531;48.078;11.968;2022-11-15T03:51:14;6.15;;;4.00;;
16828;SDS011;8531;48.078;11.968;2022-11-15T03:53:40;5.38;;;3.33;;
16828;SDS011;8531;48.078;11.968;2022-11-15T03:56:06;3.90;;;3.25;;
16828;SDS011;8531;48.078;11.968;2022-11-15T03:58:32;3.53;;;3.10;;
16828;SDS011;8531;48.078;11.968;2022-11-15T04:00:58;4.68;;;3.05;;
16828;SDS011;8531;48.078;11.968;2022-11-15T04:03:24;4.28;;;3.40;;
16828;SDS011;8531;48.078;11.968;2022-11-15T04:05:50;3.17;;;2.75;;
16828;SDS011;8531;48.078;11.968;2022-11-15T04:08:17;4.30;;;3.35;;
16828;SDS011;8531;48.078;11.968;2022-11-15T04:10:43;4.43;;;2.90;;
16828;SDS011;8531;48.078;11.968;2022-11-15T04:13:08;8.60;;;5.63;;
16828;SDS011;8531;48.078;11.968;2022-11-15T04:15:34;4.85;;;3.05;;
16828;SDS011;8531;48.078;11.968;2022-11-15T04:18:01;4.60;;;2.85;;
16828;SDS011;8531;48.078;11.968;2022-11-15T04:20:30;3.05;;;2.67;;
16828;SDS011;8531;48.078;11.968;2022-11-15T04:23:16;3.05;;;2.38;;
16828;SDS011;8531;48.078;11.968;2022-11-15T04:26:05;3.40;;;2.70;;
16828;SDS011;8531;48.078;11.968;2022-11-15T04:28:36;4.32;;;3.20;;
16828;SDS011;8531;48.078;11.968;2022-11-15T04:31:25;4.97;;;3.10;;
16828;SDS011;8531;48.078;11.968;2022-11-15T04:33:51;3.83;;;2.80;;
16828;SDS011;8531;48.078;11.968;2022-11-15T04:36:18;5.18;;;3.55;;
16828;SDS011;8531;48.078;11.968;2022-11-15T04:39:03;8.15;;;3.90;;
16828;SDS011;8531;48.078;11.968;2022-11-15T04:41:28;4.28;;;3.40;;
16828;SDS011;8531;48.078;11.968;2022-11-15T04:43:54;6.18;;;3.72;;
16828;SDS011;8531;48.078;11.968;2022-11-15T04:46:20;3.78;;;3.10;;
16828;SDS011;8531;48.078;11.968;2022-11-15T04:48:46;6.75;;;3.17;;
16828;SDS011;8531;48.078;11.968;2022-11-15T04:51:12;3.40;;;2.88;;
16828;SDS011;8531;48.078;11.968;2022-11-15T04:53:37;5.80;;;2.90;;
16828;SDS011;8531;48.078;11.968;2022-11-15T04:56:03;4.68;;;3.05;;
16828;SDS011;8531;48.078;11.968;2022-11-15T04:58:29;3.83;;;2.88;;
16828;SDS011;8531;48.078;11.968;2022-11-15T05:00:55;3.13;;;2.83;;
16828;SDS011;8531;48.078;11.968;2022-11-15T05:03:20;4.10;;;2.50;;
16828;SDS011;8531;48.078;11.968;2022-11-15T05:06:05;3.13;;;2.78;;
16828;SDS011;8531;48.078;11.968;2022-11-15T05:08:31;2.47;;;2.28;;
16828;SDS011;8531;48.078;11.968;2022-11-15T05:10:57;4.10;;;2.67;;
16828;SDS011;8531;48.078;11.968;2022-11-15T05:13:23;8.07;;;2.88;;
16828;SDS011;8531;48.078;11.968;2022-11-15T05:15:48;4.30;;;2.88;;
16828;SDS011;8531;48.078;11.968;2022-11-15T05:18:14;7.47;;;3.08;;
16828;SDS011;8531;48.078;11.968;2022-11-15T05:20:40;5.88;;;2.80;;
16828;SDS011;8531;48.078;11.968;2022-11-15T05:23:06;3.17;;;2.55;;
16828;SDS011;8531;48.078;11.968;2022-11-15T05:25:32;3.42;;;2.17;;
16828;SDS011;8531;48.078;11.968;2022-11-15T05:27:57;3.75;;;2.25;;
16828;SDS011;8531;48.078;11.968;2022-11-15T05:30:23;2.75;;;2.20;;
16828;SDS011;8531;48.078;11.968;2022-11-15T05:32:49;2.97;;;2.33;;
16828;SDS011;8531;48.078;11.968;2022-11-15T05:35:18;3.40;;;2.70;;
16828;SDS011;8531;48.078;11.968;2022-11-15T05:37:56;6.13;;;2.85;;
16828;SDS011;8531;48.078;11.968;2022-11-15T05:40:22;4.65;;;3.08;;
16828;SDS011;8531;48.078;11.968;2022-11-15T05:42:48;3.88;;;2.67;;
16828;SDS011;8531;48.078;11.968;2022-11-15T05:45:14;4.03;;;3.08;;
16828;SDS011;8531;48.078;11.968;2022-11-15T05:47:41;3.47;;;2.33;;
16828;SDS011;8531;48.078;11.968;2022-11-15T05:50:07;3.42;;;2.60;;
16828;SDS011;8531;48.078;11.968;2022-11-15T05:52:35;3.70;;;2.53;;
16828;SDS011;8531;48.078;11.968;2022-11-15T05:55:03;3.55;;;2.60;;
16828;SDS011;8531;48.078;11.968;2022-11-15T05:57:30;3.20;;;2.55;;
16828;SDS011;8531;48.078;11.968;2022-11-15T05:59:56;3.33;;;2.15;;
16828;SDS011;8531;48.078;11.968;2022-11-15T06:02:22;3.17;;;2.45;;
16828;SDS011;8531;48.078;11.968;2022-11-15T06:04:47;4.63;;;2.33;;
16828;SDS011;8531;48.078;11.968;2022-11-15T06:07:13;3.38;;;2.58;;
16828;SDS011;8531;48.078;11.968;2022-11-15T06:09:39;6.50;;;2.97;;
16828;SDS011;8531;48.078;11.968;2022-11-15T06:12:04;3.90;;;2.78;;
16828;SDS011;8531;48.078;11.968;2022-11-15T06:14:30;4.38;;;2.53;;
16828;SDS011;8531;48.078;11.968;2022-11-15T06:16:56;3.22;;;2.63;;
16828;SDS011;8531;48.078;11.968;2022-11-15T06:19:21;5.63;;;3.45;;
16828;SDS011;8531;48.078;11.968;2022-11-15T06:21:47;3.80;;;2.80;;
16828;SDS011;8531;48.078;11.968;2022-11-15T06:24:13;4.93;;;3.10;;
16828;SDS011;8531;48.078;11.968;2022-11-15T06:26:38;3.65;;;3.00;;
16828;SDS011;8531;48.078;11.968;2022-11-15T06:29:04;6.43;;;3.80;;
16828;SDS011;8531;48.078;11.968;2022-11-15T06:31:30;6.45;;;3.35;;
16828;SDS011;8531;48.078;11.968;2022-11-15T06:33:56;6.82;;;3.55;;
16828;SDS011;8531;48.078;11.968;2022-11-15T06:36:22;6.60;;;3.97;;
16828;SDS011;8531;48.078;11.968;2022-11-15T06:38:47;9.30;;;3.88;;
16828;SDS011;8531;48.078;11.968;2022-11-15T06:41:13;4.82;;;3.08;;
16828;SDS011;8531;48.078;11.968;2022-11-15T06:43:40;5.22;;;3.80;;
16828;SDS011;8531;48.078;11.968;2022-11-15T06:46:06;11.05;;;3.63;;
16828;SDS011;8531;48.078;11.968;2022-11-15T06:48:33;12.73;;;6.47;;
16828;SDS011;8531;48.078;11.968;2022-11-15T06:50:59;23.00;;;12.45;;
16828;SDS011;8531;48.078;11.968;2022-11-15T06:53:26;12.77;;;7.63;;
16828;SDS011;8531;48.078;11.968;2022-11-15T06:55:53;11.52;;;7.00;;
16828;SDS011;8531;48.078;11.968;2022-11-15T06:58:23;11.50;;;5.95;;
16828;SDS011;8531;48.078;11.968;2022-11-15T07:00:48;10.10;;;6.25;;
16828;SDS011;8531;48.078;11.968;2022-11-15T07:03:14;9.98;;;6.25;;
16828;SDS011;8531;48.078;11.968;2022-11-15T07:05:40;13.32;;;7.28;;
16828;SDS011;8531;48.078;11.968;2022-11-15T07:08:05;12.05;;;5.85;;
16828;SDS011;8531;48.078;11.968;2022-11-15T07:10:31;6.32;;;3.75;;
16828;SDS011;8531;48.078;11.968;2022-11-15T07:12:56;7.75;;;3.85;;
16828;SDS011;8531;48.078;11.968;2022-11-15T07:15:24;3.78;;;2.75;;
16828;SDS011;8531;48.078;11.968;2022-11-15T07:17:50;4.75;;;4.15;;
16828;SDS011;8531;48.078;11.968;2022-11-15T07:20:17;7.30;;;5.03;;
16828;SDS011;8531;48.078;11.968;2022-11-15T07:22:43;8.38;;;4.45;;
16828;SDS011;8531;48.078;11.968;2022-11-15T07:25:12;5.07;;;3.90;;
16828;SDS011;8531;48.078;11.968;2022-11-15T07:27:37;4.88;;;3.55;;
16828;SDS011;8531;48.078;11.968;2022-11-15T07:30:03;7.32;;;4.22;;
16828;SDS011;8531;48.078;11.968;2022-11-15T07:32:30;5.80;;;4.20;;
16828;SDS011;8531;48.078;11.968;2022-11-15T07:34:56;5.93;;;4.65;;
16828;SDS011;8531;48.078;11.968;2022-11-15T07:37:21;3.20;;;2.90;;
16828;SDS011;8531;48.078;11.968;2022-11-15T07:39:47;3.35;;;2.80;;
16828;SDS011;8531;48.078;11.968;2022-11-15T07:42:13;4.43;;;2.88;;
16828;SDS011;8531;48.078;11.968;2022-11-15T07:44:57;4.20;;;2.65;;
16828;SDS011;8531;48.078;11.968;2022-11-15T07:47:22;4.20;;;2.83;;
16828;SDS011;8531;48.078;11.968;2022-11-15T07:49:48;3.55;;;3.15;;
16828;SDS011;8531;48.078;11.968;2022-11-15T07:52:14;3.08;;;2.67;;
16828;SDS011;8531;48.078;11.968;2022-11-15T07:54:39;3.80;;;2.95;;
16828;SDS011;8531;48.078;11.968;2022-11-15T07:57:05;2.60;;;2.40;;
16828;SDS011;8531;48.078;11.968;2022-11-15T07:59:32;2.95;;;2.20;;
16828;SDS011;8531;48.078;11.968;2022-11-15T08:01:58;5.00;;;2.85;;
16828;SDS011;8531;48.078;11.968;2022-11-15T08:04:23;12.38;;;3.72;;
16828;SDS011;8531;48.078;11.968;2022-11-15T08:06:49;4.63;;;3.30;;
16828;SDS011;8531;48.078;11.968;2022-11-15T08:09:15;4.28;;;2.55;;
16828;SDS011;8531;48.078;11.968;2022-11-15T08:11:40;5.78;;;3.22;;
16828;SDS011;8531;48.078;11.968;2022-11-15T08:14:06;3.72;;;2.95;;
16828;SDS011;8531;48.078;11.968;2022-11-15T08:16:32;5.88;;;3.00;;
16828;SDS011;8531;48.078;11.968;2022-11-15T08:18:58;6.68;;;3.83;;
16828;SDS011;8531;48.078;11.968;2022-11-15T08:21:23;4.53;;;3.42;;
16828;SDS011;8531;48.078;11.968;2022-11-15T08:23:49;6.93;;;4.03;;
16828;SDS011;8531;48.078;11.968;2022-11-15T08:26:15;3.20;;;2.85;;
16828;SDS011;8531;48.078;11.968;2022-11-15T08:28:41;4.47;;;3.20;;
16828;SDS011;8531;48.078;11.968;2022-11-15T08:31:12;3.08;;;2.50;;
16828;SDS011;8531;48.078;11.968;2022-11-15T08:33:42;3.53;;;2.40;;
16828;SDS011;8531;48.078;11.968;2022-11-15T08:36:10;3.72;;;2.50;;
16828;SDS011;8531;48.078;11.968;2022-11-15T08:38:41;6.80;;;2.30;;
16828;SDS011;8531;48.078;11.968;2022-11-15T08:41:09;6.20;;;3.55;;
16828;SDS011;8531;48.078;11.968;2022-11-15T08:43:44;8.30;;;2.88;;
16828;SDS011;8531;48.078;11.968;2022-11-15T08:46:11;3.85;;;2.08;;
16828;SDS011;8531;48.078;11.968;2022-11-15T08:48:38;4.55;;;2.17;;
16828;SDS011;8531;48.078;11.968;2022-11-15T08:51:04;3.35;;;2.70;;
16828;SDS011;8531;48.078;11.968;2022-11-15T08:53:30;4.85;;;2.45;;
16828;SDS011;8531;48.078;11.968;2022-11-15T08:55:56;9.73;;;2.55;;
16828;SDS011;8531;48.078;11.968;2022-11-15T08:58:21;2.28;;;2.08;;
16828;SDS011;8531;48.078;11.968;2022-11-15T09:00:47;3.65;;;1.92;;
16828;SDS011;8531;48.078;11.968;2022-11-15T09:03:13;2.50;;;2.25;;
16828;SDS011;8531;48.078;11.968;2022-11-15T09:05:38;4.50;;;2.40;;
16828;SDS011;8531;48.078;11.968;2022-11-15T09:08:04;6.85;;;2.30;;
16828;SDS011;8531;48.078;11.968;2022-11-15T09:10:30;2.90;;;2.22;;
16828;SDS011;8531;48.078;11.968;2022-11-15T09:12:56;2.10;;;1.90;;
16828;SDS011;8531;48.078;11.968;2022-11-15T09:15:23;2.90;;;2.00;;
16828;SDS011;8531;48.078;11.968;2022-11-15T09:17:48;4.00;;;2.42;;
16828;SDS011;8531;48.078;11.968;2022-11-15T09:20:14;6.30;;;2.50;;
16828;SDS011;8531;48.078;11.968;2022-11-15T09:22:40;3.28;;;2.53;;
16828;SDS011;8531;48.078;11.968;2022-11-15T09:25:06;4.15;;;2.60;;
16828;SDS011;8531;48.078;11.968;2022-11-15T09:27:32;4.05;;;2.70;;
16828;SDS011;8531;48.078;11.968;2022-11-15T09:29:58;2.53;;;2.30;;
16828;SDS011;8531;48.078;11.968;2022-11-15T09:32:27;5.13;;;3.30;;
16828;SDS011;8531;48.078;11.968;2022-11-15T09:34:55;2.85;;;2.42;;
16828;SDS011;8531;48.078;11.968;2022-11-15T09:37:20;3.15;;;2.50;;
16828;SDS011;8531;48.078;11.968;2022-11-15T09:39:46;6.18;;;2.70;;
16828;SDS011;8531;48.078;11.968;2022-11-15T09:53:20;2.47;;;2.10;;
16828;SDS011;8531;48.078;11.968;2022-11-15T09:55:59;4.60;;;2.30;;
16828;SDS011;8531;48.078;11.968;2022-11-15T09:58:38;3.72;;;2.50;;
16828;SDS011;8531;48.078;11.968;2022-11-15T10:01:36;3.67;;;2.72;;
16828;SDS011;8531;48.078;11.968;2022-11-15T10:04:09;4.88;;;2.70;;
16828;SDS011;8531;48.078;11.968;2022-11-15T10:06:36;4.50;;;2.67;;
16828;SDS011;8531;48.078;11.968;2022-11-15T10:09:11;2.60;;;2.33;;
16828;SDS011;8531;48.078;11.968;2022-11-15T10:11:44;4.95;;;2.80;;
16828;SDS011;8531;48.078;11.968;2022-11-15T10:24:32;3.65;;;2.67;;
16828;SDS011;8531;48.078;11.968;2022-11-15T10:27:03;5.50;;;2.65;;
16828;SDS011;8531;48.078;11.968;2022-11-15T10:29:36;5.20;;;2.58;;
16828;SDS011;8531;48.078;11.968;2022-11-15T10:32:17;5.13;;;3.55;;
16828;SDS011;8531;48.078;11.968;2022-11-15T10:34:44;3.15;;;2.85;;
16828;SDS011;8531;48.078;11.968;2022-11-15T10:37:10;3.97;;;3.03;;
16828;SDS011;8531;48.078;11.968;2022-11-15T10:39:36;4.35;;;3.08;;
16828;SDS011;8531;48.078;11.968;2022-11-15T10:42:14;3.38;;;3.08;;
16828;SDS011;8531;48.078;11.968;2022-11-15T10:44:51;3.85;;;3.22;;
16828;SDS011;8531;48.078;11.968;2022-11-15T10:47:21;7.57;;;3.33;;
16828;SDS011;8531;48.078;11.968;2022-11-15T10:49:57;15.23;;;4.53;;
16828;SDS011;8531;48.078;11.968;2022-11-15T10:52:33;3.15;;;2.70;;
16828;SDS011;8531;48.078;11.968;2022-11-15T10:57:33;2.50;;;2.30;;
16828;SDS011;8531;48.078;11.968;2022-11-15T11:00:04;10.55;;;3.47;;
16828;SDS011;8531;48.078;11.968;2022-11-15T11:02:55;2.45;;;2.25;;
16828;SDS011;8531;48.078;11.968;2022-11-15T11:05:36;2.90;;;2.70;;
16828;SDS011;8531;48.078;11.968;2022-11-15T11:10:36;3.30;;;2.17;;
16828;SDS011;8531;48.078;11.968;2022-11-15T11:13:19;2.67;;;2.10;;
16828;SDS011;8531;48.078;11.968;2022-11-15T11:15:46;3.97;;;2.10;;
16828;SDS011;8531;48.078;11.968;2022-11-15T11:18:33;2.47;;;2.28;;
16828;SDS011;8531;48.078;11.968;2022-11-15T11:21:05;4.15;;;1.98;;
16828;SDS011;8531;48.078;11.968;2022-11-15T11:29:20;2.88;;;1.77;;
16828;SDS011;8531;48.078;11.968;2022-11-15T11:35:27;2.40;;;2.20;;
16828;SDS011;8531;48.078;11.968;2022-11-15T11:46:14;2.53;;;2.08;;
16828;SDS011;8531;48.078;11.968;2022-11-15T11:49:08;2.10;;;1.90;;
16828;SDS011;8531;48.078;11.968;2022-11-15T11:51:56;17.30;;;2.50;;
16828;SDS011;8531;48.078;11.968;2022-11-15T11:56:58;3.30;;;2.30;;
16828;SDS011;8531;48.078;11.968;2022-11-15T12:08:15;3.53;;;2.50;;
16828;SDS011;8531;48.078;11.968;2022-11-15T12:13:44;2.95;;;2.33;;
16828;SDS011;8531;48.078;11.968;2022-11-15T12:16:17;2.53;;;2.13;;
16828;SDS011;8531;48.078;11.968;2022-11-15T12:18:48;2.33;;;1.92;;
16828;SDS011;8531;48.078;11.968;2022-11-15T12:23:52;2.45;;;2.10;;
16828;SDS011;8531;48.078;11.968;2022-11-15T12:26:23;2.78;;;2.40;;
16828;SDS011;8531;48.078;11.968;2022-11-15T12:28:58;2.05;;;1.85;;
16828;SDS011;8531;48.078;11.968;2022-11-15T12:31:38;2.30;;;1.90;;
16828;SDS011;8531;48.078;11.968;2022-11-15T12:36:46;2.17;;;1.90;;
16828;SDS011;8531;48.078;11.968;2022-11-15T12:39:14;3.47;;;2.00;;
16828;SDS011;8531;48.078;11.968;2022-11-15T12:41:41;5.50;;;2.45;;
16828;SDS011;8531;48.078;11.968;2022-11-15T13:02:26;4.60;;;2.95;;
16828;SDS011;8531;48.078;11.968;2022-11-15T13:17:57;3.28;;;2.53;;
16828;SDS011;8531;48.078;11.968;2022-11-15T13:20:25;2.95;;;2.25;;
16828;SDS011;8531;48.078;11.968;2022-11-15T13:23:07;2.53;;;2.33;;
16828;SDS011;8531;48.078;11.968;2022-11-15T13:28:31;3.03;;;2.72;;
16828;SDS011;8531;48.078;11.968;2022-11-15T13:31:00;2.60;;;2.22;;
16828;SDS011;8531;48.078;11.968;2022-11-15T13:33:46;4.13;;;2.90;;
16828;SDS011;8531;48.078;11.968;2022-11-15T13:36:16;2.85;;;2.50;;
16828;SDS011;8531;48.078;11.968;2022-11-15T13:38:53;4.03;;;2.83;;
16828;SDS011;8531;48.078;11.968;2022-11-15T13:41:31;3.13;;;2.83;;
16828;SDS011;8531;48.078;11.968;2022-11-15T13:43:58;6.70;;;2.88;;
16828;SDS011;8531;48.078;11.968;2022-11-15T13:46:26;3.05;;;2.67;;
16828;SDS011;8531;48.078;11.968;2022-11-15T13:48:59;4.40;;;3.42;;
16828;SDS011;8531;48.078;11.968;2022-11-15T13:51:32;6.13;;;3.22;;
16828;SDS011;8531;48.078;11.968;2022-11-15T13:54:06;5.20;;;3.33;;
16828;SDS011;8531;48.078;11.968;2022-11-15T13:57:01;3.60;;;3.03;;
16828;SDS011;8531;48.078;11.968;2022-11-15T13:59:31;7.35;;;3.13;;
16828;SDS011;8531;48.078;11.968;2022-11-15T14:02:13;4.45;;;3.42;;
16828;SDS011;8531;48.078;11.968;2022-11-15T14:04:53;4.07;;;2.97;;
16828;SDS011;8531;48.078;11.968;2022-11-15T14:07:23;3.83;;;3.00;;
16828;SDS011;8531;48.078;11.968;2022-11-15T14:09:51;2.92;;;2.70;;
16828;SDS011;8531;48.078;11.968;2022-11-15T14:14:46;4.93;;;3.35;;
16828;SDS011;8531;48.078;11.968;2022-11-15T14:17:19;4.65;;;3.10;;
16828;SDS011;8531;48.078;11.968;2022-11-15T14:19:54;3.60;;;3.30;;
16828;SDS011;8531;48.078;11.968;2022-11-15T14:22:21;4.63;;;3.50;;
16828;SDS011;8531;48.078;11.968;2022-11-15T14:27:43;5.43;;;3.72;;
16828;SDS011;8531;48.078;11.968;2022-11-15T14:30:29;5.45;;;4.63;;
16828;SDS011;8531;48.078;11.968;2022-11-15T14:32:55;5.07;;;3.70;;
16828;SDS011;8531;48.078;11.968;2022-11-15T14:35:21;5.40;;;4.28;;
16828;SDS011;8531;48.078;11.968;2022-11-15T14:37:48;6.47;;;4.50;;
16828;SDS011;8531;48.078;11.968;2022-11-15T14:40:14;4.65;;;3.50;;
16828;SDS011;8531;48.078;11.968;2022-11-15T14:42:45;4.93;;;4.07;;
16828;SDS011;8531;48.078;11.968;2022-11-15T14:45:16;5.32;;;4.20;;
16828;SDS011;8531;48.078;11.968;2022-11-15T14:47:46;4.78;;;4.00;;
16828;SDS011;8531;48.078;11.968;2022-11-15T14:50:16;5.00;;;4.13;;
16828;SDS011;8531;48.078;11.968;2022-11-15T14:52:44;6.13;;;4.35;;
16828;SDS011;8531;48.078;11.968;2022-11-15T14:55:26;7.63;;;4.80;;
16828;SDS011;8531;48.078;11.968;2022-11-15T14:57:54;5.80;;;4.40;;
16828;SDS011;8531;48.078;11.968;2022-11-15T15:00:20;5.15;;;4.28;;
16828;SDS011;8531;48.078;11.968;2022-11-15T15:02:46;5.82;;;4.40;;
16828;SDS011;8531;48.078;11.968;2022-11-15T15:05:18;9.05;;;4.32;;
16828;SDS011;8531;48.078;11.968;2022-11-15T15:07:46;6.70;;;5.57;;
16828;SDS011;8531;48.078;11.968;2022-11-15T15:10:13;4.85;;;4.35;;
16828;SDS011;8531;48.078;11.968;2022-11-15T15:12:40;6.60;;;4.30;;
16828;SDS011;8531;48.078;11.968;2022-11-15T15:15:06;9.93;;;5.15;;
16828;SDS011;8531;48.078;11.968;2022-11-15T15:17:43;14.13;;;6.20;;
16828;SDS011;8531;48.078;11.968;2022-11-15T15:20:09;9.18;;;5.78;;
16828;SDS011;8531;48.078;11.968;2022-11-15T15:22:35;12.88;;;7.97;;
16828;SDS011;8531;48.078;11.968;2022-11-15T15:25:02;38.88;;;20.23;;
16828;SDS011;8531;48.078;11.968;2022-11-15T15:27:32;23.10;;;13.70;;
16828;SDS011;8531;48.078;11.968;2022-11-15T15:29:58;44.42;;;25.92;;
16828;SDS011;8531;48.078;11.968;2022-11-15T15:32:23;33.28;;;22.30;;
16828;SDS011;8531;48.078;11.968;2022-11-15T15:34:49;15.63;;;12.55;;
16828;SDS011;8531;48.078;11.968;2022-11-15T15:39:54;25.02;;;19.60;;
16828;SDS011;8531;48.078;11.968;2022-11-15T15:42:21;9.55;;;7.68;;
16828;SDS011;8531;48.078;11.968;2022-11-15T15:44:48;9.25;;;6.40;;
16828;SDS011;8531;48.078;11.968;2022-11-15T15:47:15;7.63;;;6.18;;
16828;SDS011;8531;48.078;11.968;2022-11-15T15:49:45;8.73;;;6.80;;
16828;SDS011;8531;48.078;11.968;2022-11-15T15:52:11;10.40;;;6.93;;
16828;SDS011;8531;48.078;11.968;2022-11-15T15:54:37;7.97;;;7.03;;
16828;SDS011;8531;48.078;11.968;2022-11-15T15:57:03;10.65;;;7.15;;
16828;SDS011;8531;48.078;11.968;2022-11-15T15:59:29;14.75;;;7.70;;
16828;SDS011;8531;48.078;11.968;2022-11-15T16:01:55;12.32;;;7.75;;
16828;SDS011;8531;48.078;11.968;2022-11-15T16:04:21;13.23;;;8.13;;
16828;SDS011;8531;48.078;11.968;2022-11-15T16:06:47;11.77;;;8.23;;
16828;SDS011;8531;48.078;11.968;2022-11-15T16:09:15;11.60;;;7.18;;
16828;SDS011;8531;48.078;11.968;2022-11-15T16:11:42;10.43;;;8.23;;
16828;SDS011;8531;48.078;11.968;2022-11-15T16:14:09;12.30;;;7.50;;
16828;SDS011;8531;48.078;11.968;2022-11-15T16:16:35;10.80;;;8.48;;
16828;SDS011;8531;48.078;11.968;2022-11-15T16:19:02;14.55;;;10.20;;
16828;SDS011;8531;48.078;11.968;2022-11-15T16:21:28;11.55;;;10.13;;
16828;SDS011;8531;48.078;11.968;2022-11-15T16:23:54;16.08;;;12.00;;
16828;SDS011;8531;48.078;11.968;2022-11-15T16:26:26;13.63;;;11.07;;
16828;SDS011;8531;48.078;11.968;2022-11-15T16:28:53;12.45;;;10.38;;
16828;SDS011;8531;48.078;11.968;2022-11-15T16:31:19;16.08;;;13.98;;
16828;SDS011;8531;48.078;11.968;2022-11-15T16:33:48;14.93;;;11.77;;
16828;SDS011;8531;48.078;11.968;2022-11-15T16:36:19;14.50;;;11.77;;
16828;SDS011;8531;48.078;11.968;2022-11-15T16:38:48;15.90;;;13.13;;
16828;SDS011;8531;48.078;11.968;2022-11-15T16:41:15;16.83;;;13.60;;
16828;SDS011;8531;48.078;11.968;2022-11-15T16:43:43;14.90;;;13.10;;
16828;SDS011;8531;48.078;11.968;2022-11-15T16:46:15;13.30;;;11.48;;
16828;SDS011;8531;48.078;11.968;2022-11-15T16:48:43;15.35;;;11.52;;
16828;SDS011;8531;48.078;11.968;2022-11-15T16:51:09;14.63;;;12.25;;
16828;SDS011;8531;48.078;11.968;2022-11-15T16:53:35;13.63;;;11.85;;
16828;SDS011;8531;48.078;11.968;2022-11-15T16:56:01;14.13;;;11.25;;
16828;SDS011;8531;48.078;11.968;2022-11-15T16:58:27;17.63;;;13.68;;
16828;SDS011;8531;48.078;11.968;2022-11-15T17:00:53;16.40;;;13.98;;
16828;SDS011;8531;48.078;11.968;2022-11-15T17:03:21;18.27;;;14.82;;
16828;SDS011;8531;48.078;11.968;2022-11-15T17:05:47;22.70;;;19.23;;
16828;SDS011;8531;48.078;11.968;2022-11-15T17:08:13;22.20;;;18.23;;
16828;SDS011;8531;48.078;11.968;2022-11-15T17:10:39;25.85;;;20.83;;
16828;SDS011;8531;48.078;11.968;2022-11-15T17:13:06;22.38;;;18.23;;
16828;SDS011;8531;48.078;11.968;2022-11-15T17:15:35;24.23;;;18.83;;